Terminal Aerodrome Forecast
Issued by NWS Pittsburgh, PA

Current Version | Previous Version | Graphics & Text | Print | Product List | Glossary On
Versions: 1 2 3 4 5 6 7 8 9 10 11 12 13 14 15 16 17 18 19 20 21 22 23 24 25 26 27 28 29 30 31 32
000
FTUS41 KPBZ 302000 AAA
TAFPIT
TAF AMD
KPIT 302055Z 3021/3124 28015G30KT P6SM BKN050
     FM310100 26005KT P6SM BKN050
     FM311000 16006KT 6SM -RA BKN035
     FM311300 19010KT 6SM -RA OVC035
     FM311900 28012G22KT P6SM OVC025=

USA.gov is the U.S. government's official web portal to all federal, state and local government web resources and services.